Time;durP1;ratioP1;P1;durP2;ratioP2;P2;SDS_P1;SDS_P2;PMS_P1;PMS_P2;Temp;Humidity;BMP_temperature;BMP_pressure;BME280_temperature;BME280_humidity;BME280_pressure;Samples;Min_cycle;Max_cycle;Signal;HPM_P1;HPM_P2
2021/09/05 00:00:19;;;;;;;19.50;17.50;;;13.00;99.90;;;11.94;100.00;98145.25;5144623;27;20469;-79
2021/09/05 00:02:50;;;;;;;17.47;15.87;;;12.90;99.90;;;11.85;100.00;98142.81;5167931;27;20549;-79
2021/09/05 00:05:21;;;;;;;19.93;17.93;;;12.90;99.90;;;11.67;100.00;98123.81;5150935;27;20529;-79
2021/09/05 00:07:48;;;;;;;22.50;19.10;;;12.80;99.90;;;11.87;100.00;98156.16;5134425;27;20476;-79
2021/09/05 00:10:18;;;;;;;20.77;18.83;;;12.80;99.90;;;11.83;100.00;98144.91;5156372;27;20460;-79
2021/09/05 00:12:45;;;;;;;19.40;17.50;;;12.80;99.90;;;11.82;100.00;98150.53;5128880;27;20482;-79
2021/09/05 00:15:14;;;;;;;20.10;18.10;;;12.80;99.90;;;11.71;100.00;98128.56;5150168;27;20449;-79
2021/09/05 00:17:42;;;;;;;21.70;19.40;;;12.80;99.90;;;11.65;100.00;98113.19;5156730;27;20873;-80
2021/09/05 00:20:15;;;;;;;19.77;17.70;;;12.80;99.90;;;11.83;100.00;98144.09;5130309;27;20536;-80
2021/09/05 00:22:42;;;;;;;18.67;16.87;;;12.80;99.90;;;11.83;100.00;98144.91;5125227;27;20474;-79
2021/09/05 00:25:10;;;;;;;20.57;18.47;;;12.80;99.90;;;11.81;100.00;98143.47;5156078;27;20465;-79
2021/09/05 00:27:37;;;;;;;19.23;17.03;;;12.80;99.90;;;11.86;100.00;98144.47;5135152;27;20799;-79
2021/09/05 00:30:07;;;;;;;18.23;16.13;;;12.80;99.90;;;11.86;100.00;98144.47;5136334;27;20468;-80
2021/09/05 00:32:34;;;;;;;18.23;16.53;;;12.80;99.90;;;11.85;100.00;98145.53;5132515;27;20456;-80
2021/09/05 00:35:01;;;;;;;19.90;16.47;;;12.80;99.90;;;11.80;100.00;98145.38;5129920;27;20458;-80
2021/09/05 00:37:30;;;;;;;19.87;17.87;;;12.80;99.90;;;11.63;100.00;98126.13;5154578;27;20617;-79
2021/09/05 00:39:57;;;;;;;18.50;16.80;;;12.70;99.90;;;11.62;100.00;98130.72;5154885;27;20477;-79
2021/09/05 00:42:24;;;;;;;19.07;17.20;;;12.70;99.90;;;11.71;100.00;98142.09;5129942;27;20492;-79
2021/09/05 00:44:52;;;;;;;20.40;18.43;;;12.70;99.90;;;11.63;100.00;98131.53;5148144;27;20690;-79
2021/09/05 00:47:21;;;;;;;18.80;17.00;;;12.70;99.90;;;11.76;100.00;98144.16;5156141;27;20445;-79
2021/09/05 00:49:48;;;;;;;19.57;17.77;;;12.70;99.90;;;11.61;100.00;98137.19;5165893;27;20480;-79
2021/09/05 00:52:20;;;;;;;19.27;17.40;;;12.70;99.90;;;11.41;100.00;98114.84;5173457;27;20536;-79
2021/09/05 00:54:49;;;;;;;18.57;16.67;;;12.70;99.90;;;11.75;100.00;98153.31;5168459;27;20552;-79
2021/09/05 00:57:18;;;;;;;20.10;18.07;;;12.70;99.90;;;11.34;100.00;98083.25;5159288;27;20510;-79
2021/09/05 00:59:48;;;;;;;18.23;16.63;;;12.80;99.90;;;11.72;100.00;98159.16;5143876;27;20545;-79
2021/09/05 01:02:17;;;;;;;19.00;17.30;;;12.70;99.90;;;11.60;100.00;98151.78;5137457;27;20449;-79
2021/09/05 01:04:44;;;;;;;21.60;17.70;;;12.60;99.90;;;11.58;100.00;98153.03;5154037;27;21093;-79
2021/09/05 01:07:12;;;;;;;18.07;16.30;;;12.60;99.90;;;11.58;100.00;98164.66;5134748;27;20850;-79
2021/09/05 01:09:40;;;;;;;19.53;17.50;;;12.60;99.90;;;11.44;100.00;98147.69;5131321;27;20461;-79
2021/09/05 01:12:16;;;;;;;19.20;17.50;;;12.50;99.90;;;11.51;100.00;98161.19;5151777;27;20537;-79
2021/09/05 01:14:45;;;;;;;20.93;18.73;;;12.50;99.90;;;11.42;100.00;98154.38;5149458;27;20465;-79
2021/09/05 01:17:12;;;;;;;18.93;17.20;;;12.40;99.90;;;11.39;100.00;98152.09;5145136;27;20465;-79
2021/09/05 01:19:40;;;;;;;21.67;19.47;;;12.40;99.90;;;11.41;100.00;98158.13;5148457;27;20454;-79
2021/09/05 01:22:07;;;;;;;20.60;18.70;;;12.40;99.90;;;11.37;100.00;98155.00;5149968;27;20454;-79
2021/09/05 01:24:34;;;;;;;18.60;16.80;;;12.40;99.90;;;11.41;100.00;98168.94;5151253;27;20508;-80
2021/09/05 01:27:05;;;;;;;19.23;17.33;;;12.50;99.90;;;11.42;100.00;98167.88;5154581;27;20445;-80
2021/09/05 01:29:33;;;;;;;19.00;17.20;;;12.40;99.90;;;11.44;100.00;98168.50;5133819;27;20477;-79
2021/09/05 01:32:01;;;;;;;17.83;16.20;;;12.40;99.90;;;11.45;100.00;98167.47;5152983;27;20548;-79
2021/09/05 01:34:28;;;;;;;19.20;17.40;;;12.40;99.90;;;11.43;100.00;98172.25;5138644;27;20819;-79
2021/09/05 01:37:11;;;;;;;18.77;16.87;;;12.40;99.90;;;11.40;100.00;98164.56;5140852;27;20863;-79
2021/09/05 01:39:40;;;;;;;19.43;17.50;;;12.40;99.90;;;11.28;100.00;98154.44;5150450;27;20490;-80
2021/09/05 01:42:09;;;;;;;20.80;18.73;;;12.30;99.90;;;11.18;100.00;98148.69;5148350;27;20446;-80
2021/09/05 01:44:38;;;;;;;21.20;19.10;;;12.30;99.90;;;11.30;100.00;98178.56;5146961;27;20492;-79
2021/09/05 01:47:06;;;;;;;20.87;18.47;;;12.30;99.90;;;11.11;100.00;98153.28;5154462;27;20499;-79
2021/09/05 01:49:33;;;;;;;20.40;18.40;;;12.20;99.90;;;11.33;100.00;98184.41;5155135;27;20951;-80
2021/09/05 01:52:00;;;;;;;20.13;18.20;;;12.30;99.90;;;11.16;100.00;98157.00;5155616;27;20815;-79
2021/09/05 01:54:27;;;;;;;19.00;17.10;;;12.30;99.90;;;11.50;100.00;98192.00;5155918;27;20452;-81
2021/09/05 01:56:54;;;;;;;21.73;19.23;;;12.40;99.90;;;11.42;100.00;98189.53;5135718;27;20464;-79
2021/09/05 01:59:25;;;;;;;19.63;17.57;;;12.40;99.90;;;11.30;100.00;98178.56;5138164;27;20760;-80
2021/09/05 02:01:52;;;;;;;19.20;17.40;;;12.40;99.90;;;11.33;100.00;98183.53;5131674;28;20498;-79
2021/09/05 02:04:19;;;;;;;19.90;18.00;;;12.30;99.90;;;11.32;100.00;98185.44;5129595;27;20476;-80
2021/09/05 02:06:46;;;;;;;19.40;17.47;;;12.30;99.90;;;11.28;100.00;98184.19;5127725;27;20452;-79
2021/09/05 02:09:13;;;;;;;18.33;16.53;;;12.30;99.90;;;11.22;100.00;98179.66;5148651;27;20454;-79
2021/09/05 02:11:40;;;;;;;19.67;17.67;;;12.30;99.90;;;11.31;100.00;98186.50;5161187;27;20449;-79
2021/09/05 02:14:08;;;;;;;18.70;17.00;;;12.30;99.90;;;11.32;100.00;98181.88;5156007;27;20975;-79
2021/09/05 02:16:37;;;;;;;20.07;18.00;;;12.30;99.90;;;11.33;100.00;98191.66;5157904;27;20461;-79
2021/09/05 02:19:05;;;;;;;18.87;16.90;;;12.30;99.90;;;11.29;100.00;98183.16;5151047;27;20560;-79
2021/09/05 02:21:33;;;;;;;19.67;17.60;;;12.20;99.90;;;11.13;100.00;98162.00;5159066;27;20450;-79
2021/09/05 02:24:00;;;;;;;18.63;16.73;;;12.20;99.90;;;11.17;100.00;98185.72;5132968;27;20448;-79
2021/09/05 02:26:27;;;;;;;19.20;17.37;;;12.20;99.90;;;11.22;100.00;98192.34;5155783;27;20454;-78
2021/09/05 02:28:54;;;;;;;20.03;18.07;;;12.20;99.90;;;11.23;100.00;98192.13;5164317;27;20459;-79
2021/09/05 02:31:22;;;;;;;19.37;17.47;;;12.20;99.90;;;11.39;100.00;98187.25;5147030;27;20452;-79
2021/09/05 02:33:50;;;;;;;17.80;16.10;;;12.30;99.90;;;11.43;100.00;98183.91;5144185;27;20470;-79
2021/09/05 02:36:17;;;;;;;15.93;14.37;;;12.30;99.90;;;11.32;100.00;98187.31;5150008;27;20437;-79
2021/09/05 02:38:46;;;;;;;19.30;17.40;;;12.30;99.90;;;11.15;100.00;98186.97;5174240;27;20467;-79
2021/09/05 02:41:13;;;;;;;19.30;17.40;;;12.30;99.90;;;11.23;100.00;98194.84;5166514;27;20434;-79
2021/09/05 02:43:43;;;;;;;18.90;17.03;;;12.20;99.90;;;11.13;100.00;98173.66;5151757;27;20592;-79
2021/09/05 02:46:10;;;;;;;18.80;16.40;;;12.30;99.90;;;11.23;100.00;98177.78;5150268;27;20487;-79
2021/09/05 02:48:37;;;;;;;18.80;17.00;;;12.30;99.90;;;11.25;100.00;98195.44;5156403;27;20450;-79
2021/09/05 02:51:06;;;;;;;19.13;17.30;;;12.30;99.90;;;11.22;100.00;98171.53;5162965;27;20535;-79
2021/09/05 02:53:33;;;;;;;20.53;17.67;;;12.30;99.90;;;11.27;100.00;98190.66;5155417;27;20461;-80
2021/09/05 02:56:03;;;;;;;18.43;16.60;;;12.30;99.90;;;11.20;100.00;98179.84;5161414;27;20441;-79
2021/09/05 02:58:31;;;;;;;18.80;16.80;;;12.30;99.90;;;10.99;100.00;98162.06;5153812;27;20576;-80
2021/09/05 03:01:00;;;;;;;19.37;17.37;;;12.20;99.90;;;11.04;100.00;98178.50;5156482;27;20477;-79
2021/09/05 03:03:29;;;;;;;18.90;16.93;;;12.20;99.90;;;11.12;100.00;98199.06;5136691;27;20450;-79
2021/09/05 03:05:57;;;;;;;18.53;16.60;;;12.10;99.90;;;11.10;100.00;98197.59;5161269;27;20551;-79
2021/09/05 03:08:25;;;;;;;17.80;16.10;;;12.10;99.90;;;11.07;100.00;98200.72;5143505;27;20557;-79
2021/09/05 03:10:52;;;;;;;16.97;15.13;;;12.10;99.90;;;11.12;100.00;98200.91;5162227;27;20514;-79
2021/09/05 03:13:20;;;;;;;16.97;15.17;;;12.10;99.90;;;11.05;100.00;98193.66;5147874;27;20471;-79
2021/09/05 03:15:47;;;;;;;17.07;15.47;;;12.10;99.90;;;10.92;100.00;98188.31;5136157;27;20960;-78
2021/09/05 03:18:14;;;;;;;16.87;15.20;;;12.00;99.90;;;10.87;100.00;98201.66;5154004;27;20467;-79
2021/09/05 03:20:45;;;;;;;16.07;13.87;;;11.90;99.90;;;10.87;100.00;98193.53;5137607;27;20449;-78
2021/09/05 03:23:12;;;;;;;16.70;14.80;;;11.90;99.90;;;10.82;100.00;98191.47;5148841;27;20488;-78
2021/09/05 03:25:41;;;;;;;15.53;14.00;;;11.90;99.90;;;10.84;100.00;98199.34;5151248;27;20568;-79
2021/09/05 03:28:08;;;;;;;15.43;13.93;;;11.90;99.90;;;10.68;100.00;98179.03;5124284;27;20441;-79
2021/09/05 03:30:36;;;;;;;16.33;14.73;;;11.80;99.90;;;10.72;100.00;98200.03;5153293;27;20538;-78
2021/09/05 03:33:03;;;;;;;15.67;14.07;;;11.80;99.90;;;10.73;100.00;98207.09;5153873;27;20521;-79
2021/09/05 03:35:31;;;;;;;17.40;15.80;;;11.70;99.90;;;10.60;100.00;98190.91;5158441;27;20449;-79
2021/09/05 03:37:59;;;;;;;17.10;15.50;;;11.80;99.90;;;10.73;100.00;98204.38;5162975;27;21044;-79
2021/09/05 03:40:34;;;;;;;15.50;13.90;;;11.80;99.90;;;10.64;100.00;98189.44;5126721;27;20522;-79
2021/09/05 03:43:11;;;;;;;17.13;15.23;;;11.90;99.90;;;10.74;100.00;98214.16;5138486;27;20520;-79
2021/09/05 03:45:41;;;;;;;17.67;15.97;;;11.80;99.90;;;10.64;100.00;98200.25;5158551;27;20831;-80
2021/09/05 03:48:11;;;;;;;17.80;15.63;;;11.80;99.90;;;10.54;100.00;98211.47;5157155;27;20564;-79
2021/09/05 03:50:38;;;;;;;17.37;15.67;;;11.70;99.90;;;10.58;100.00;98217.31;5131644;27;20454;-80
2021/09/05 03:53:05;;;;;;;18.10;16.40;;;11.70;99.90;;;10.50;100.00;98223.75;5150772;27;20449;-79
2021/09/05 03:55:35;;;;;;;17.47;15.87;;;11.60;99.90;;;10.52;100.00;98231.63;5143933;27;20460;-79
2021/09/05 03:58:04;;;;;;;18.10;16.30;;;11.60;99.90;;;10.47;100.00;98222.28;5140966;27;20461;-79
2021/09/05 04:00:32;;;;;;;17.23;15.63;;;11.50;99.90;;;10.36;100.00;98206.69;5160244;27;20456;-79
2021/09/05 04:02:59;;;;;;;20.97;17.73;;;11.50;99.90;;;10.57;100.00;98226.44;5160933;27;20465;-79
2021/09/05 04:05:29;;;;;;;19.20;17.40;;;11.60;99.90;;;10.56;100.00;98222.91;5162084;27;20467;-79
2021/09/05 04:08:13;;;;;;;19.23;17.27;;;11.60;99.90;;;10.56;100.00;98225.59;5149110;27;20474;-78
2021/09/05 04:10:43;;;;;;;20.23;18.23;;;11.60;99.90;;;10.42;100.00;98211.31;5136379;27;20458;-79
2021/09/05 04:13:13;;;;;;;22.10;19.70;;;11.60;99.90;;;10.47;100.00;98233.09;5149669;27;20507;-79
2021/09/05 04:15:43;;;;;;;22.47;20.00;;;11.40;99.90;;;10.46;100.00;98231.44;5136554;27;20770;-78
2021/09/05 04:18:10;;;;;;;23.53;21.27;;;11.50;99.90;;;10.46;100.00;98217.94;5128750;27;20573;-78
2021/09/05 04:20:37;;;;;;;26.57;23.80;;;11.50;99.90;;;10.54;100.00;98219.59;5158371;27;20608;-79
2021/09/05 04:23:04;;;;;;;25.57;23.07;;;11.60;99.90;;;10.54;100.00;98229.53;5153030;27;20457;-79
2021/09/05 04:25:31;;;;;;;28.07;25.40;;;11.60;99.90;;;10.56;100.00;98235.59;5154241;27;20540;-79
2021/09/05 04:27:58;;;;;;;26.40;23.70;;;11.60;99.90;;;10.57;100.00;98231.84;5157922;27;20493;-78
2021/09/05 04:30:26;;;;;;;24.30;22.00;;;11.60;99.90;;;10.55;100.00;98225.84;5166699;27;20501;-79
2021/09/05 04:32:54;;;;;;;25.13;22.53;;;11.60;99.90;;;10.53;100.00;98234.13;5157768;27;20433;-79
2021/09/05 04:35:21;;;;;;;24.33;20.73;;;11.60;99.90;;;10.48;100.00;98237.47;5163471;27;20446;-79
2021/09/05 04:37:49;;;;;;;24.37;21.97;;;11.50;99.90;;;10.44;100.00;98244.34;5141072;27;20446;-79
2021/09/05 04:40:16;;;;;;;22.93;20.63;;;11.50;99.90;;;10.43;100.00;98239.97;5152254;27;20452;-80
2021/09/05 04:42:43;;;;;;;22.00;19.80;;;11.50;99.90;;;10.49;100.00;98243.72;5155757;27;20537;-80
2021/09/05 04:45:12;;;;;;;23.17;19.83;;;11.50;99.90;;;10.40;100.00;98229.56;5154163;27;20478;-80
2021/09/05 04:47:39;;;;;;;20.70;18.70;;;11.50;99.90;;;10.41;100.00;98239.34;5153287;27;20437;-80
2021/09/05 04:50:12;;;;;;;19.50;17.57;;;11.50;99.90;;;10.30;100.00;98223.75;5152099;27;20473;-80
2021/09/05 04:52:40;;;;;;;19.87;17.87;;;11.60;99.90;;;10.46;100.00;98247.66;5158124;27;20452;-79
2021/09/05 04:55:09;;;;;;;20.27;18.10;;;11.50;99.90;;;10.44;100.00;98246.19;5157411;27;20451;-80
2021/09/05 04:57:37;;;;;;;19.83;17.70;;;11.50;99.90;;;10.38;100.00;98242.41;5151050;27;20450;-80
2021/09/05 05:00:09;;;;;;;18.73;17.03;;;11.50;99.90;;;10.46;100.00;98249.50;5134538;27;20462;-79
2021/09/05 05:02:37;;;;;;;20.00;17.83;;;11.50;99.90;;;10.48;100.00;98248.25;5123182;27;20454;-79
2021/09/05 05:05:11;;;;;;;20.33;17.30;;;11.60;99.90;;;10.55;100.00;98258.25;5161407;27;20465;-80
2021/09/05 05:07:42;;;;;;;19.43;17.57;;;11.60;99.90;;;10.54;100.00;98256.56;5161709;27;20481;-80
2021/09/05 05:10:11;;;;;;;19.03;17.20;;;11.60;99.90;;;10.45;100.00;98240.59;5160611;27;20467;-80
2021/09/05 05:12:38;;;;;;;19.90;17.77;;;11.60;99.90;;;10.76;100.00;98255.31;5146589;27;20445;-80
2021/09/05 05:15:07;;;;;;;19.10;17.17;;;11.80;99.90;;;10.89;100.00;98275.25;5165122;27;20484;-80
2021/09/05 05:17:34;;;;;;;20.20;17.93;;;12.00;99.90;;;10.92;100.00;98277.50;5159399;27;20513;-79
2021/09/05 05:20:03;;;;;;;21.27;19.23;;;12.00;99.90;;;10.99;100.00;98280.19;5132827;27;20509;-80
2021/09/05 05:22:34;;;;;;;22.50;20.13;;;12.10;99.90;;;11.00;100.00;98276.47;5144093;27;20517;-79
2021/09/05 05:25:12;;;;;;;21.90;19.60;;;12.10;99.90;;;10.81;100.00;98240.31;5160929;27;20498;-80
2021/09/05 05:27:39;;;;;;;21.20;19.37;;;12.10;99.90;;;11.01;100.00;98276.25;5153348;27;20442;-80
2021/09/05 05:30:08;;;;;;;20.03;18.13;;;12.10;99.90;;;11.02;100.00;98277.91;5156112;27;20518;-80
2021/09/05 05:32:35;;;;;;;20.73;18.93;;;12.20;99.90;;;11.04;100.00;98277.69;5153245;27;20465;-81
2021/09/05 05:35:03;;;;;;;19.53;17.63;;;12.20;99.90;;;11.12;100.00;98284.72;5157677;27;20793;-79
2021/09/05 05:37:32;;;;;;;20.03;16.87;;;12.30;99.90;;;11.31;100.00;98300.09;5134191;27;20457;-80
2021/09/05 05:40:02;;;;;;;17.13;15.57;;;12.40;99.70;;;11.48;99.14;98296.91;5134277;27;20785;-80
2021/09/05 05:42:32;;;;;;;17.17;15.37;;;12.50;98.30;;;11.47;99.36;98297.94;5138404;27;20517;-80
2021/09/05 05:44:59;;;;;;;18.47;16.43;;;12.60;97.70;;;11.56;98.66;98295.84;5135399;27;20437;-81
2021/09/05 05:47:28;;;;;;;16.47;14.97;;;12.70;96.90;;;11.60;98.92;98311.44;5154800;27;20624;-79
2021/09/05 05:49:56;;;;;;;19.30;15.23;;;12.70;97.50;;;11.70;98.69;98302.00;5135046;27;20458;-79
2021/09/05 05:52:29;;;;;;;16.60;14.87;;;12.80;97.30;;;11.75;99.66;98310.28;5129462;27;20457;-79
2021/09/05 05:55:00;;;;;;;16.47;14.93;;;12.90;98.10;;;11.63;99.25;98280.38;5132552;27;20445;-80
2021/09/05 05:57:28;;;;;;;16.77;15.17;;;13.00;98.50;;;11.96;99.36;98306.44;5127651;27;20442;-80
2021/09/05 05:59:56;;;;;;;18.60;16.10;;;13.10;97.90;;;12.01;99.21;98292.25;5152513;27;20486;-80
2021/09/05 06:02:25;;;;;;;16.10;14.70;;;13.20;97.80;;;12.23;98.33;98308.19;5124574;27;20787;-80
2021/09/05 06:04:52;;;;;;;18.57;16.73;;;13.30;96.80;;;11.95;97.60;98249.81;5134969;27;20521;-80
2021/09/05 06:07:21;;;;;;;16.17;14.50;;;13.40;96.10;;;12.42;97.44;98299.06;5157983;27;20453;-80
2021/09/05 06:09:49;;;;;;;17.73;15.83;;;13.50;95.60;;;12.49;96.84;98292.75;5104322;27;20449;-80
2021/09/05 06:12:18;;;;;;;17.30;15.80;;;13.70;95.10;;;12.61;96.71;98289.13;5153588;27;20473;-80
2021/09/05 06:14:49;;;;;;;16.97;15.17;;;13.80;95.00;;;12.74;96.27;98300.91;5142079;27;20457;-80
2021/09/05 06:17:17;;;;;;;15.83;14.43;;;13.90;94.60;;;12.82;95.54;98302.50;5160411;27;20483;-80
2021/09/05 06:19:44;;;;;;;17.03;15.43;;;14.00;94.10;;;12.98;95.13;98307.34;5165958;27;20454;-80
2021/09/05 06:22:11;;;;;;;17.17;15.67;;;14.10;93.50;;;13.06;94.72;98297.25;5140788;27;20440;-81
2021/09/05 06:24:39;;;;;;;17.90;16.30;;;14.20;93.30;;;13.31;93.26;98311.59;5161363;27;20508;-77
2021/09/05 06:27:06;;;;;;;16.50;14.83;;;14.40;92.50;;;13.37;92.91;98314.44;5160967;27;20487;-79
2021/09/05 06:29:36;;;;;;;16.47;15.00;;;14.50;91.90;;;13.59;92.17;98317.56;5142466;27;20487;-79
2021/09/05 06:32:04;;;;;;;18.03;16.13;;;14.60;91.60;;;13.59;90.79;98302.13;5162660;27;20505;-82
2021/09/05 06:34:36;;;;;;;17.90;15.90;;;14.70;90.60;;;13.70;91.05;98310.53;5153780;27;20461;-82
2021/09/05 06:37:06;;;;;;;16.20;14.60;;;14.80;90.90;;;13.82;90.52;98319.56;5142702;27;20451;-80
2021/09/05 06:39:33;;;;;;;17.13;15.57;;;14.90;90.60;;;13.79;90.89;98294.75;5136071;27;20445;-81
2021/09/05 06:42:00;;;;;;;15.40;14.07;;;15.00;90.70;;;14.09;89.71;98316.47;5154836;27;20445;-81
2021/09/05 06:44:27;;;;;;;17.23;15.60;;;15.10;90.30;;;14.12;88.99;98310.56;5150407;27;20477;-81
2021/09/05 06:46:56;;;;;;;17.40;15.00;;;15.30;89.90;;;14.29;87.31;98312.63;5146457;27;20473;-81
2021/09/05 06:49:24;;;;;;;16.60;15.17;;;15.40;87.90;;;14.36;86.60;98310.66;5160710;27;20454;-82
2021/09/05 06:51:51;;;;;;;15.93;14.33;;;15.50;87.30;;;14.51;86.65;98323.78;5133142;27;20882;-81
2021/09/05 06:54:18;;;;;;;17.10;15.30;;;15.50;87.30;;;14.60;86.77;98329.72;5168021;27;20450;-82
2021/09/05 06:56:47;;;;;;;15.73;14.07;;;15.60;87.30;;;14.67;85.99;98327.72;5163603;27;20437;-83
2021/09/05 06:59:17;;;;;;;15.27;13.87;;;15.70;87.00;;;14.78;85.91;98330.69;5155929;27;20482;-82
2021/09/05 07:01:44;;;;;;;17.47;15.67;;;15.80;86.30;;;14.71;84.46;98299.03;5153113;27;20475;-81
2021/09/05 07:04:15;;;;;;;20.20;15.53;;;16.00;85.20;;;14.90;84.74;98317.94;5154135;27;20506;-82
2021/09/05 07:06:44;;;;;;;16.80;14.93;;;16.00;85.20;;;15.09;84.22;98328.69;5156873;27;20492;-81
2021/09/05 07:09:14;;;;;;;16.30;14.67;;;16.10;84.70;;;15.18;83.07;98332.72;5155663;27;20481;-81
2021/09/05 07:11:41;;;;;;;17.93;15.13;;;16.10;84.20;;;15.30;83.03;98330.81;5159295;27;20452;-81
2021/09/05 07:14:08;;;;;;;16.60;15.00;;;16.30;84.10;;;15.37;81.83;98332.59;5158760;27;20513;-81
2021/09/05 07:16:36;;;;;;;15.87;14.37;;;16.40;83.30;;;15.38;82.36;98309.72;5130402;27;20442;-82
2021/09/05 07:19:04;;;;;;;16.53;15.03;;;16.40;83.40;;;15.56;81.79;98339.56;5153645;27;20437;-83
2021/09/05 07:21:36;;;;;;;15.13;13.73;;;16.60;82.70;;;15.44;80.71;98304.16;5163480;27;20434;-84
2021/09/05 07:24:05;;;;;;;16.13;14.60;;;16.60;81.70;;;15.81;80.50;98335.69;5129441;27;20451;-81
2021/09/05 07:26:32;;;;;;;18.30;15.67;;;16.80;81.60;;;16.12;79.08;98349.91;5154686;27;20863;-81
2021/09/05 07:29:04;;;;;;;14.57;13.27;;;17.00;80.80;;;16.26;77.34;98342.28;5132663;27;20473;-82
2021/09/05 07:31:32;;;;;;;15.60;13.90;;;17.20;79.10;;;15.88;76.94;98253.81;5157519;27;20458;-80
2021/09/05 07:34:02;;;;;;;15.70;14.10;;;17.40;78.70;;;16.49;77.19;98340.50;5141731;27;20504;-82
2021/09/05 07:36:33;;;;;;;15.07;13.57;;;17.50;78.60;;;16.38;76.08;98327.78;5157783;27;20479;-82
2021/09/05 07:39:17;;;;;;;14.60;13.13;;;17.50;77.10;;;16.39;75.71;98332.97;5159185;27;20497;-82
2021/09/05 07:41:47;;;;;;;19.80;14.33;;;17.50;76.50;;;16.46;75.71;98345.63;5130668;27;20461;-82
2021/09/05 07:44:14;;;;;;;15.70;14.30;;;17.50;76.30;;;16.57;74.64;98342.00;5163644;27;20479;-81
2021/09/05 07:46:42;;;;;;;15.07;13.70;;;17.60;75.60;;;16.63;74.98;98343.75;5133419;27;20978;-78
2021/09/05 07:49:09;;;;;;;14.20;12.93;;;17.60;75.90;;;16.79;74.80;98349.44;5155214;27;20449;-79
2021/09/05 07:51:36;;;;;;;15.90;14.00;;;17.70;75.70;;;16.83;74.53;98340.53;5146413;27;20454;-76
2021/09/05 07:54:04;;;;;;;14.20;12.83;;;17.80;75.50;;;16.94;73.71;98341.50;5148307;27;20790;-76
2021/09/05 07:56:31;;;;;;;14.10;12.70;;;17.90;74.80;;;17.04;73.29;98345.47;5145877;27;20517;-75
2021/09/05 07:58:58;;;;;;;14.20;12.77;;;18.00;74.30;;;17.17;72.47;98339.69;5145331;27;20533;-76
2021/09/05 08:01:26;;;;;;;14.93;13.37;;;18.10;73.90;;;17.26;73.07;98332.72;5153372;27;20980;-77
2021/09/05 08:03:54;;;;;;;14.13;12.73;;;18.20;74.10;;;17.54;72.10;98354.66;5147247;27;20458;-76
2021/09/05 08:06:25;;;;;;;15.77;13.00;;;18.40;73.80;;;17.70;71.53;98347.50;5150625;27;20552;-77
2021/09/05 08:08:52;;;;;;;13.97;12.57;;;18.50;73.40;;;17.78;69.87;98351.69;5146524;27;20469;-77
2021/09/05 08:11:20;;;;;;;12.53;11.43;;;18.70;72.00;;;17.80;70.01;98344.06;5140288;27;20454;-77
2021/09/05 08:13:47;;;;;;;12.43;11.33;;;18.80;71.80;;;18.03;70.08;98347.63;5144939;27;20446;-78
2021/09/05 08:16:14;;;;;;;14.00;12.60;;;18.90;71.80;;;18.25;68.88;98353.88;5126724;27;20888;-78
2021/09/05 08:18:43;;;;;;;12.03;10.93;;;19.10;71.20;;;18.39;67.19;98351.56;5148934;27;20461;-77
2021/09/05 08:21:13;;;;;;;12.10;11.00;;;19.20;70.00;;;18.52;67.38;98357.69;5151601;27;20507;-79
2021/09/05 08:23:42;;;;;;;13.00;11.70;;;19.30;69.50;;;18.51;66.65;98348.69;5152918;27;20453;-78
2021/09/05 08:26:12;;;;;;;13.10;11.90;;;19.40;69.30;;;18.63;67.10;98367.66;5149859;27;20498;-78
2021/09/05 08:28:40;;;;;;;11.97;10.87;;;19.50;69.30;;;18.57;66.64;98370.59;5151670;27;20540;-79
2021/09/05 08:31:08;;;;;;;12.10;10.90;;;19.50;68.70;;;18.67;67.27;98365.22;5129567;27;20464;-77
2021/09/05 08:33:35;;;;;;;12.17;10.97;;;19.60;69.20;;;18.73;67.45;98355.13;5153674;27;20945;-79
2021/09/05 08:36:03;;;;;;;12.40;11.30;;;19.60;69.30;;;18.94;66.59;98365.16;5155440;27;20485;-79
2021/09/05 08:38:32;;;;;;;11.27;10.37;;;19.80;68.90;;;19.01;66.52;98369.63;5137077;27;20464;-79
2021/09/05 08:40:59;;;;;;;12.90;11.73;;;19.80;68.50;;;19.13;65.66;98362.03;5144645;27;20450;-78
2021/09/05 08:43:27;;;;;;;12.03;10.93;;;19.90;67.90;;;19.29;64.66;98364.88;5153219;27;20492;-78
2021/09/05 08:45:56;;;;;;;12.00;10.90;;;20.10;67.60;;;19.12;64.44;98349.44;5132824;27;20514;-79
2021/09/05 08:48:23;;;;;;;10.87;9.90;;;20.10;67.00;;;19.32;64.84;98370.66;5135261;27;20473;-79
2021/09/05 08:50:54;;;;;;;10.90;9.80;;;20.20;67.30;;;19.40;64.20;98372.09;5130005;27;20454;-81
2021/09/05 08:53:21;;;;;;;10.90;9.90;;;20.20;66.60;;;19.62;63.78;98368.34;5149517;27;20488;-78
2021/09/05 08:55:49;;;;;;;10.37;9.47;;;20.40;66.70;;;19.68;63.03;98364.56;5161223;27;20459;-81
2021/09/05 08:58:17;;;;;;;11.50;10.40;;;20.50;66.00;;;19.73;63.36;98363.75;5155400;27;20484;-79
2021/09/05 09:00:46;;;;;;;10.93;9.93;;;20.60;66.30;;;19.91;63.08;98377.00;5151343;27;20545;-78
2021/09/05 09:03:21;;;;;;;11.23;10.23;;;20.70;66.10;;;19.94;62.45;98370.16;5151334;27;20503;-78
2021/09/05 09:05:53;;;;;;;11.00;9.23;;;20.80;65.40;;;20.08;61.88;98368.56;5137955;27;20482;-82
2021/09/05 09:08:24;;;;;;;10.70;9.60;;;20.90;65.30;;;20.17;61.12;98374.38;5158827;27;20446;-81
2021/09/05 09:10:57;;;;;;;9.77;8.73;;;21.00;64.60;;;20.32;61.45;98370.84;5168360;27;20453;-79
2021/09/05 09:13:29;;;;;;;10.33;9.43;;;21.10;64.90;;;20.34;59.98;98365.91;5163859;27;20460;-80
2021/09/05 09:18:44;;;;;;;10.57;9.63;;;21.20;64.00;;;20.35;59.83;98362.06;5157677;27;20448;-79
2021/09/05 09:21:20;;;;;;;10.60;9.60;;;21.20;63.30;;;20.39;59.58;98343.13;5153771;27;20506;-79
2021/09/05 09:23:51;;;;;;;11.00;8.93;;;21.40;63.60;;;20.64;59.32;98374.47;5134867;27;20445;-79
2021/09/05 09:26:31;;;;;;;9.37;8.47;;;21.40;63.00;;;20.80;58.89;98367.03;5156888;27;20952;-79
2021/09/05 09:28:58;;;;;;;10.80;9.80;;;21.60;63.10;;;20.89;57.99;98370.94;5150030;27;20540;-79
2021/09/05 09:31:28;;;;;;;9.67;8.87;;;21.70;62.40;;;20.86;57.76;98367.91;5142611;27;20445;-79
2021/09/05 09:33:59;;;;;;;8.47;7.67;;;21.70;61.90;;;20.62;58.10;98319.00;5158119;27;20942;-79
2021/09/05 09:36:28;;;;;;;10.43;9.53;;;21.80;62.20;;;21.05;57.86;98370.91;5155063;27;20456;-79
2021/09/05 09:38:58;;;;;;;8.37;7.67;;;21.80;61.90;;;21.13;57.33;98364.84;5147893;27;20782;-79
2021/09/05 09:41:30;;;;;;;9.60;8.70;;;22.00;62.00;;;21.34;57.10;98371.16;5160059;27;20516;-78
2021/09/05 09:44:03;;;;;;;9.50;8.70;;;22.10;61.70;;;21.35;55.93;98358.25;5147083;27;20549;-79
2021/09/05 09:46:40;;;;;;;9.10;8.20;;;22.20;61.00;;;21.55;55.91;98373.03;5140456;27;20606;-79
2021/09/05 09:49:11;;;;;;;9.20;8.30;;;22.30;60.90;;;21.64;55.74;98354.88;5148651;27;20457;-79
2021/09/05 09:51:40;;;;;;;8.40;7.70;;;22.40;61.00;;;21.61;55.50;98344.41;5115605;27;20469;-78
2021/09/05 09:54:09;;;;;;;9.30;8.50;;;22.50;60.50;;;21.67;55.27;98359.81;5150091;27;20461;-80
2021/09/05 09:56:36;;;;;;;9.00;7.97;;;22.50;60.20;;;21.80;55.95;98358.41;5140959;27;20800;-80
2021/09/05 09:59:08;;;;;;;9.70;8.50;;;22.60;60.90;;;21.79;55.28;98351.25;5153561;27;20444;-79
2021/09/05 10:01:36;;;;;;;9.00;8.20;;;22.60;60.40;;;21.89;53.93;98358.63;5131233;27;20456;-79
2021/09/05 10:04:05;;;;;;;9.43;8.60;;;22.70;59.70;;;21.67;54.49;98306.75;5153104;27;20472;-80
2021/09/05 10:06:35;;;;;;;9.10;8.23;;;22.70;59.70;;;21.97;54.80;98366.31;5135111;27;20465;-79
2021/09/05 10:09:07;;;;;;;8.47;7.77;;;22.80;60.30;;;22.07;53.15;98363.50;5149315;27;20474;-80
2021/09/05 10:11:38;;;;;;;8.13;7.43;;;22.80;59.20;;;21.94;52.31;98348.44;5151815;27;20471;-79